sensor_id;sensor_type;location;lat;lon;timestamp;temperature;humidity
6863;DHT22;3470;48.738;9.616;2023-02-28T13:36:38;14.70;52.00
6863;DHT22;3470;48.738;9.616;2023-02-28T13:47:29;16.20;51.40
6863;DHT22;3470;48.738;9.616;2023-02-28T13:50:21;15.70;51.30
6863;DHT22;3470;48.738;9.616;2023-02-28T13:58:40;16.20;50.90
6863;DHT22;3470;48.738;9.616;2023-02-28T18:08:43;0.80;90.40
6863;DHT22;3470;48.738;9.616;2023-02-28T18:11:09;0.60;91.20
6863;DHT22;3470;48.738;9.616;2023-02-28T18:13:43;0.50;90.90
6863;DHT22;3470;48.738;9.616;2023-02-28T18:54:21;0.40;91.50
6863;DHT22;3470;48.738;9.616;2023-02-28T18:56:47;0.30;91.80
6863;DHT22;3470;48.738;9.616;2023-02-28T18:59:12;0.40;91.90
6863;DHT22;3470;48.738;9.616;2023-02-28T19:01:38;0.30;92.00
6863;DHT22;3470;48.738;9.616;2023-02-28T19:04:04;0.30;92.10
6863;DHT22;3470;48.738;9.616;2023-02-28T19:06:31;0.30;92.30
6863;DHT22;3470;48.738;9.616;2023-02-28T19:08:59;0.20;92.10
6863;DHT22;3470;48.738;9.616;2023-02-28T19:11:24;0.20;92.50
6863;DHT22;3470;48.738;9.616;2023-02-28T19:13:50;0.30;92.50
6863;DHT22;3470;48.738;9.616;2023-02-28T19:16:18;0.20;92.40
6863;DHT22;3470;48.738;9.616;2023-02-28T19:18:44;0.20;92.50
6863;DHT22;3470;48.738;9.616;2023-02-28T19:21:12;0.20;92.50
6863;DHT22;3470;48.738;9.616;2023-02-28T19:23:39;0.20;92.60
6863;DHT22;3470;48.738;9.616;2023-02-28T19:26:22;0.30;92.60
6863;DHT22;3470;48.738;9.616;2023-02-28T19:28:48;0.30;92.40
6863;DHT22;3470;48.738;9.616;2023-02-28T19:31:19;0.30;92.50
6863;DHT22;3470;48.738;9.616;2023-02-28T19:33:45;0.30;92.60
6863;DHT22;3470;48.738;9.616;2023-02-28T19:36:11;0.20;92.60
6863;DHT22;3470;48.738;9.616;2023-02-28T19:38:38;0.20;92.70
6863;DHT22;3470;48.738;9.616;2023-02-28T19:41:06;0.20;92.60
6863;DHT22;3470;48.738;9.616;2023-02-28T19:43:31;0.30;92.70
6863;DHT22;3470;48.738;9.616;2023-02-28T19:45:57;0.20;92.70
6863;DHT22;3470;48.738;9.616;2023-02-28T19:48:23;0.20;92.80
6863;DHT22;3470;48.738;9.616;2023-02-28T19:50:55;0.10;92.80
6863;DHT22;3470;48.738;9.616;2023-02-28T19:53:21;0.00;93.00
6863;DHT22;3470;48.738;9.616;2023-02-28T19:55:47;0.10;93.10
6863;DHT22;3470;48.738;9.616;2023-02-28T19:58:13;0.00;93.10
6863;DHT22;3470;48.738;9.616;2023-02-28T20:00:39;0.00;93.10
6863;DHT22;3470;48.738;9.616;2023-02-28T20:03:05;0.00;93.20
6863;DHT22;3470;48.738;9.616;2023-02-28T20:05:31;0.00;93.30
6863;DHT22;3470;48.738;9.616;2023-02-28T20:07:57;0.00;93.30
6863;DHT22;3470;48.738;9.616;2023-02-28T20:10:23;0.00;93.30
6863;DHT22;3470;48.738;9.616;2023-02-28T20:12:49;0.00;93.40
6863;DHT22;3470;48.738;9.616;2023-02-28T20:15:15;0.00;93.30
6863;DHT22;3470;48.738;9.616;2023-02-28T20:17:41;-0.10;93.50
6863;DHT22;3470;48.738;9.616;2023-02-28T20:20:08;-0.10;93.60
6863;DHT22;3470;48.738;9.616;2023-02-28T20:22:36;-0.20;93.80
6863;DHT22;3470;48.738;9.616;2023-02-28T20:25:02;-0.30;93.90
6863;DHT22;3470;48.738;9.616;2023-02-28T20:27:28;-0.20;94.00
6863;DHT22;3470;48.738;9.616;2023-02-28T20:29:54;-0.30;94.20
6863;DHT22;3470;48.738;9.616;2023-02-28T20:32:19;-0.40;94.30
6863;DHT22;3470;48.738;9.616;2023-02-28T20:34:45;-0.50;94.40
6863;DHT22;3470;48.738;9.616;2023-02-28T20:37:10;-0.50;94.70
6863;DHT22;3470;48.738;9.616;2023-02-28T20:39:36;-0.50;94.80
6863;DHT22;3470;48.738;9.616;2023-02-28T20:42:02;-0.60;94.90
6863;DHT22;3470;48.738;9.616;2023-02-28T20:44:27;-0.60;95.10
6863;DHT22;3470;48.738;9.616;2023-02-28T20:46:53;-0.60;95.10
6863;DHT22;3470;48.738;9.616;2023-02-28T20:49:19;-0.70;95.30
6863;DHT22;3470;48.738;9.616;2023-02-28T20:51:44;-0.60;95.20
6863;DHT22;3470;48.738;9.616;2023-02-28T20:54:10;-0.60;95.20
6863;DHT22;3470;48.738;9.616;2023-02-28T20:56:36;-0.60;95.10
6863;DHT22;3470;48.738;9.616;2023-02-28T20:59:02;-0.60;95.10
6863;DHT22;3470;48.738;9.616;2023-02-28T21:01:29;-0.60;95.30
6863;DHT22;3470;48.738;9.616;2023-02-28T21:03:57;-0.60;95.40
6863;DHT22;3470;48.738;9.616;2023-02-28T21:06:26;-0.60;95.30
6863;DHT22;3470;48.738;9.616;2023-02-28T21:08:53;-0.70;95.40
6863;DHT22;3470;48.738;9.616;2023-02-28T21:11:21;-0.70;95.50
6863;DHT22;3470;48.738;9.616;2023-02-28T21:13:48;-0.80;95.70
6863;DHT22;3470;48.738;9.616;2023-02-28T21:16:18;-0.90;95.70
6863;DHT22;3470;48.738;9.616;2023-02-28T21:18:46;-0.80;95.80
6863;DHT22;3470;48.738;9.616;2023-02-28T21:21:17;-0.80;95.80
6863;DHT22;3470;48.738;9.616;2023-02-28T21:23:43;-0.70;95.90
6863;DHT22;3470;48.738;9.616;2023-02-28T21:26:15;-0.70;96.00
6863;DHT22;3470;48.738;9.616;2023-02-28T21:28:41;-0.80;95.70
6863;DHT22;3470;48.738;9.616;2023-02-28T21:31:11;-0.80;95.70
6863;DHT22;3470;48.738;9.616;2023-02-28T21:33:37;-0.80;95.70
6863;DHT22;3470;48.738;9.616;2023-02-28T21:36:09;-0.90;95.80
6863;DHT22;3470;48.738;9.616;2023-02-28T21:38:36;-0.90;95.90
6863;DHT22;3470;48.738;9.616;2023-02-28T21:41:07;-0.90;95.90
6863;DHT22;3470;48.738;9.616;2023-02-28T21:43:32;-1.00;96.00
6863;DHT22;3470;48.738;9.616;2023-02-28T21:46:03;-1.00;96.20
6863;DHT22;3470;48.738;9.616;2023-02-28T21:48:29;-0.90;96.40
6863;DHT22;3470;48.738;9.616;2023-02-28T21:50:59;-0.90;96.30
6863;DHT22;3470;48.738;9.616;2023-02-28T21:53:30;-0.90;96.30
6863;DHT22;3470;48.738;9.616;2023-02-28T21:56:00;-1.00;96.30
6863;DHT22;3470;48.738;9.616;2023-02-28T21:58:26;-1.10;96.50
6863;DHT22;3470;48.738;9.616;2023-02-28T22:00:51;-1.10;96.50
6863;DHT22;3470;48.738;9.616;2023-02-28T22:03:17;-1.20;96.60
6863;DHT22;3470;48.738;9.616;2023-02-28T22:05:42;-1.20;96.80
6863;DHT22;3470;48.738;9.616;2023-02-28T22:08:08;-1.40;97.00
6863;DHT22;3470;48.738;9.616;2023-02-28T22:10:34;-1.40;97.30
6863;DHT22;3470;48.738;9.616;2023-02-28T22:13:01;-1.40;97.40
6863;DHT22;3470;48.738;9.616;2023-02-28T22:15:34;-1.50;97.50
6863;DHT22;3470;48.738;9.616;2023-02-28T22:17:59;-1.50;97.60
6863;DHT22;3470;48.738;9.616;2023-02-28T22:20:25;-1.50;97.80
6863;DHT22;3470;48.738;9.616;2023-02-28T22:22:51;-1.50;97.80
6863;DHT22;3470;48.738;9.616;2023-02-28T22:25:16;-1.50;97.90
6863;DHT22;3470;48.738;9.616;2023-02-28T22:27:43;-1.50;98.30
6863;DHT22;3470;48.738;9.616;2023-02-28T22:30:09;-1.60;98.00
6863;DHT22;3470;48.738;9.616;2023-02-28T22:32:34;-1.70;98.10
6863;DHT22;3470;48.738;9.616;2023-02-28T22:35:00;-1.60;98.20
6863;DHT22;3470;48.738;9.616;2023-02-28T22:37:25;-1.60;98.50
6863;DHT22;3470;48.738;9.616;2023-02-28T22:39:51;-1.60;98.30
6863;DHT22;3470;48.738;9.616;2023-02-28T22:42:17;-1.60;98.40
6863;DHT22;3470;48.738;9.616;2023-02-28T22:44:42;-1.60;98.50
6863;DHT22;3470;48.738;9.616;2023-02-28T22:47:11;-1.70;98.60
6863;DHT22;3470;48.738;9.616;2023-02-28T22:49:37;-1.70;98.60
6863;DHT22;3470;48.738;9.616;2023-02-28T22:52:03;-1.70;98.80
6863;DHT22;3470;48.738;9.616;2023-02-28T22:54:29;-1.80;98.90
6863;DHT22;3470;48.738;9.616;2023-02-28T22:56:55;-1.80;99.00
6863;DHT22;3470;48.738;9.616;2023-02-28T22:59:20;-1.80;99.00
6863;DHT22;3470;48.738;9.616;2023-02-28T23:01:46;-1.80;99.10
6863;DHT22;3470;48.738;9.616;2023-02-28T23:04:12;-1.80;99.20
6863;DHT22;3470;48.738;9.616;2023-02-28T23:06:40;-1.80;99.20
6863;DHT22;3470;48.738;9.616;2023-02-28T23:09:18;-1.80;99.20
6863;DHT22;3470;48.738;9.616;2023-02-28T23:11:47;-1.90;99.20
6863;DHT22;3470;48.738;9.616;2023-02-28T23:14:15;-1.90;99.40
6863;DHT22;3470;48.738;9.616;2023-02-28T23:16:49;-1.90;99.70
6863;DHT22;3470;48.738;9.616;2023-02-28T23:19:22;-2.00;99.70
6863;DHT22;3470;48.738;9.616;2023-02-28T23:21:49;-2.10;99.70
6863;DHT22;3470;48.738;9.616;2023-02-28T23:24:17;-2.10;99.90
6863;DHT22;3470;48.738;9.616;2023-02-28T23:26:47;-2.20;99.90
6863;DHT22;3470;48.738;9.616;2023-02-28T23:29:14;-2.20;99.90
6863;DHT22;3470;48.738;9.616;2023-02-28T23:31:40;-2.30;99.90
6863;DHT22;3470;48.738;9.616;2023-02-28T23:34:06;-2.40;99.90
6863;DHT22;3470;48.738;9.616;2023-02-28T23:36:32;-2.40;99.90
6863;DHT22;3470;48.738;9.616;2023-02-28T23:38:57;-2.30;99.90
6863;DHT22;3470;48.738;9.616;2023-02-28T23:41:23;-2.50;99.90
6863;DHT22;3470;48.738;9.616;2023-02-28T23:43:50;-2.60;99.90
6863;DHT22;3470;48.738;9.616;2023-02-28T23:46:17;-2.60;99.90
6863;DHT22;3470;48.738;9.616;2023-02-28T23:48:43;-2.60;99.90
6863;DHT22;3470;48.738;9.616;2023-02-28T23:51:14;-2.60;99.90
6863;DHT22;3470;48.738;9.616;2023-02-28T23:53:43;-2.60;99.90
6863;DHT22;3470;48.738;9.616;2023-02-28T23:56:10;-2.60;99.90
6863;DHT22;3470;48.738;9.616;2023-02-28T23:58:39;-2.60;99.90
